createdAt,value
2018-11-26T00:01:44.922Z,4.40
2018-11-26T00:04:16.234Z,4.40
2018-11-26T00:06:47.363Z,4.40
2018-11-26T00:09:17.878Z,4.40
2018-11-26T00:11:48.840Z,4.40
2018-11-26T00:14:19.162Z,4.40
2018-11-26T00:16:49.194Z,4.40
2018-11-26T00:19:20.026Z,4.30
2018-11-26T00:21:52.731Z,4.30
2018-11-26T00:24:23.452Z,4.30
2018-11-26T00:26:53.491Z,4.30
2018-11-26T00:29:24.808Z,4.20
2018-11-26T00:31:55.544Z,4.20
2018-11-26T00:34:26.127Z,4.20
2018-11-26T00:36:59.034Z,4.20
2018-11-26T00:39:30.536Z,4.20
2018-11-26T00:42:02.211Z,4.20
2018-11-26T00:44:32.293Z,4.20
2018-11-26T00:47:03.203Z,4.10
2018-11-26T00:49:34.795Z,4.10
2018-11-26T00:52:04.779Z,4.00
2018-11-26T00:54:35.327Z,4.00
2018-11-26T00:57:05.913Z,3.90
2018-11-26T00:59:35.989Z,3.90
2018-11-26T01:02:05.871Z,3.90
2018-11-26T01:04:37.003Z,3.80
2018-11-26T01:07:07.736Z,3.80
2018-11-26T01:09:37.855Z,3.80
2018-11-26T01:12:11.363Z,3.70
2018-11-26T01:14:43.655Z,3.70
2018-11-26T01:17:14.311Z,3.70
2018-11-26T01:19:43.934Z,3.70
2018-11-26T01:22:14.922Z,3.70
2018-11-26T01:24:45.576Z,3.60
2018-11-26T01:27:16.647Z,3.40
2018-11-26T01:29:46.561Z,3.60
2018-11-26T01:32:16.432Z,3.50
2018-11-26T01:34:46.252Z,3.50
2018-11-26T01:37:17.476Z,3.60
2018-11-26T01:39:48.309Z,3.40
2018-11-26T01:42:18.340Z,3.40
2018-11-26T01:44:48.931Z,3.30
2018-11-26T01:47:18.989Z,3.20
2018-11-26T01:49:49.108Z,3.30
2018-11-26T01:52:20.535Z,3.30
2018-11-26T01:54:50.339Z,3.20
2018-11-26T01:57:21.239Z,3.20
2018-11-26T01:59:51.522Z,3.30
2018-11-26T02:02:22.430Z,3.30
2018-11-26T02:04:52.794Z,3.20
2018-11-26T02:07:23.446Z,3.20
2018-11-26T02:09:53.110Z,3.10
2018-11-26T02:12:23.666Z,3.10
2018-11-26T02:14:55.485Z,3.10
2018-11-26T02:17:25.873Z,3.20
2018-11-26T02:19:56.448Z,3.30
2018-11-26T02:22:27.279Z,3.30
2018-11-26T02:24:57.364Z,3.20
2018-11-26T02:27:28.220Z,3.20
2018-11-26T02:29:58.325Z,3.30
2018-11-26T02:32:28.315Z,3.20
2018-11-26T02:34:58.941Z,3.20
2018-11-26T02:37:30.213Z,3.20
2018-11-26T02:40:01.041Z,3.10
2018-11-26T02:42:30.613Z,2.90
2018-11-26T02:45:02.144Z,2.90
2018-11-26T02:47:31.723Z,2.80
2018-11-26T02:50:01.122Z,2.80
2018-11-26T02:52:31.773Z,2.80
2018-11-26T02:55:02.227Z,2.80
2018-11-26T02:57:35.355Z,2.80
2018-11-26T03:00:06.655Z,2.80
2018-11-26T03:02:36.455Z,2.80
2018-11-26T03:05:07.916Z,2.80
2018-11-26T03:07:38.593Z,2.90
2018-11-26T03:10:11.338Z,2.90
2018-11-26T03:12:41.296Z,2.90
2018-11-26T03:15:12.534Z,2.80
2018-11-26T03:17:45.578Z,2.70
2018-11-26T03:20:16.830Z,2.90
2018-11-26T03:22:47.577Z,2.90
2018-11-26T03:25:17.452Z,2.90
2018-11-26T03:27:48.097Z,2.70
2018-11-26T03:30:22.034Z,2.90
2018-11-26T03:32:51.951Z,2.80
2018-11-26T03:35:21.953Z,2.80
2018-11-26T03:37:52.526Z,2.70
2018-11-26T03:40:22.430Z,2.80
2018-11-26T03:42:52.712Z,2.90
2018-11-26T03:45:22.677Z,2.80
2018-11-26T03:47:52.462Z,2.80
2018-11-26T03:50:23.178Z,2.80
2018-11-26T03:52:53.535Z,2.90
2018-11-26T03:55:24.906Z,2.90
2018-11-26T03:57:54.788Z,3.00
2018-11-26T04:00:24.679Z,2.90
2018-11-26T04:02:55.200Z,3.00
2018-11-26T04:05:26.812Z,3.00
2018-11-26T04:07:57.271Z,3.00
2018-11-26T04:10:27.600Z,3.00
2018-11-26T04:12:58.515Z,3.00
2018-11-26T04:15:29.244Z,3.00
2018-11-26T04:17:59.611Z,3.10
2018-11-26T04:20:29.838Z,3.00
2018-11-26T04:22:59.668Z,3.10
2018-11-26T04:25:29.636Z,3.10
2018-11-26T04:27:59.321Z,3.10
2018-11-26T04:30:30.627Z,3.10
2018-11-26T04:33:02.523Z,3.10
2018-11-26T04:35:32.077Z,3.10
2018-11-26T04:38:02.453Z,3.10
2018-11-26T04:40:32.671Z,3.10
2018-11-26T04:43:03.337Z,3.10
2018-11-26T04:45:34.100Z,3.10
2018-11-26T04:48:04.906Z,3.10
2018-11-26T04:50:35.117Z,3.10
2018-11-26T04:53:05.739Z,3.10
2018-11-26T04:55:35.935Z,3.10
2018-11-26T04:58:06.117Z,3.20
2018-11-26T05:00:36.966Z,3.10
2018-11-26T05:03:07.810Z,3.10
2018-11-26T05:05:38.129Z,3.10
2018-11-26T05:08:08.432Z,3.10
2018-11-26T05:10:38.563Z,3.10
2018-11-26T05:13:09.502Z,3.10
2018-11-26T05:15:39.700Z,3.10
2018-11-26T05:18:09.509Z,3.10
2018-11-26T05:20:39.834Z,3.10
2018-11-26T05:23:10.852Z,3.10
2018-11-26T05:25:42.128Z,3.20
2018-11-26T05:28:12.122Z,3.10
2018-11-26T05:30:42.214Z,3.10
2018-11-26T05:33:13.308Z,3.20
2018-11-26T05:35:43.883Z,3.20
2018-11-26T05:38:13.716Z,3.10
2018-11-26T05:40:44.913Z,3.20
2018-11-26T05:43:16.071Z,3.20
2018-11-26T05:45:47.095Z,3.20
2018-11-26T05:48:17.602Z,3.20
2018-11-26T05:50:47.778Z,3.20
2018-11-26T05:53:18.470Z,3.20
2018-11-26T05:55:48.782Z,3.20
2018-11-26T05:58:19.775Z,3.20
2018-11-26T06:00:49.459Z,3.20
2018-11-26T06:03:19.597Z,3.20
2018-11-26T06:05:49.580Z,3.20
2018-11-26T06:08:19.847Z,3.20
2018-11-26T06:10:49.613Z,3.20
2018-11-26T06:13:20.115Z,3.20
2018-11-26T06:15:50.271Z,3.20
2018-11-26T06:18:19.909Z,3.20
2018-11-26T06:20:50.059Z,3.20
2018-11-26T06:23:20.113Z,3.20
2018-11-26T06:25:50.203Z,3.30
2018-11-26T06:28:21.714Z,3.30
2018-11-26T06:30:52.041Z,3.30
2018-11-26T06:33:22.271Z,3.30
2018-11-26T06:35:52.419Z,3.20
2018-11-26T06:38:21.771Z,3.20
2018-11-26T06:40:51.832Z,3.20
2018-11-26T06:43:22.016Z,3.20
2018-11-26T06:45:53.293Z,3.20
2018-11-26T06:48:22.977Z,3.20
2018-11-26T06:50:52.755Z,3.20
2018-11-26T06:53:23.397Z,3.20
2018-11-26T06:55:53.194Z,3.20
2018-11-26T06:58:22.480Z,3.20
2018-11-26T07:00:52.088Z,3.20
2018-11-26T07:03:22.134Z,3.20
2018-11-26T07:05:52.991Z,3.20
2018-11-26T07:08:24.720Z,3.30
2018-11-26T07:10:54.805Z,3.20
2018-11-26T07:13:24.648Z,3.30
2018-11-26T07:15:54.224Z,3.20
2018-11-26T07:18:23.893Z,3.20
2018-11-26T07:20:53.724Z,3.20
2018-11-26T07:23:23.552Z,3.30
2018-11-26T07:25:53.560Z,3.30
2018-11-26T07:28:23.621Z,3.30
2018-11-26T07:30:56.538Z,3.30
2018-11-26T07:33:27.314Z,3.30
2018-11-26T07:35:57.702Z,3.30
2018-11-26T07:38:27.536Z,3.30
2018-11-26T07:40:57.470Z,3.30
2018-11-26T07:43:27.406Z,3.30
2018-11-26T07:45:57.306Z,3.30
2018-11-26T07:48:27.096Z,3.40
2018-11-26T07:50:56.736Z,3.30
2018-11-26T07:53:26.158Z,3.30
2018-11-26T07:55:55.744Z,3.40
2018-11-26T07:58:25.506Z,3.40
2018-11-26T08:00:54.893Z,3.30
2018-11-26T08:03:24.762Z,3.40
2018-11-26T08:05:54.053Z,3.30
2018-11-26T08:08:23.579Z,3.40
2018-11-26T08:10:53.704Z,3.30
2018-11-26T08:13:23.550Z,3.40
2018-11-26T08:15:53.611Z,3.40
2018-11-26T08:18:23.961Z,3.40
2018-11-26T08:20:54.536Z,3.40
2018-11-26T08:23:24.220Z,3.40
2018-11-26T08:25:54.165Z,3.40
2018-11-26T08:28:24.127Z,3.30
2018-11-26T08:30:54.179Z,3.30
2018-11-26T08:33:24.785Z,3.40
2018-11-26T08:36:00.115Z,3.40
2018-11-26T08:38:34.769Z,3.40
2018-11-26T08:41:13.351Z,3.40
2018-11-26T08:43:46.339Z,3.30
2018-11-26T08:46:21.201Z,3.40
2018-11-26T08:48:56.735Z,3.40
2018-11-26T08:51:26.612Z,3.40
2018-11-26T08:53:57.921Z,3.30
2018-11-26T08:56:27.831Z,3.30
2018-11-26T08:58:58.234Z,3.40
2018-11-26T09:01:33.841Z,3.30
2018-11-26T09:04:11.350Z,3.40
2018-11-26T09:06:41.937Z,3.40
2018-11-26T09:09:12.952Z,3.40
2018-11-26T09:11:43.665Z,3.40
2018-11-26T09:14:13.508Z,3.40
2018-11-26T09:16:44.544Z,3.40
2018-11-26T09:19:17.302Z,3.40
2018-11-26T09:21:47.357Z,3.40
2018-11-26T09:24:17.928Z,3.50
2018-11-26T09:26:47.377Z,3.40
2018-11-26T09:29:16.886Z,3.40
2018-11-26T09:31:46.949Z,3.40
2018-11-26T09:34:16.538Z,3.40
2018-11-26T09:36:46.821Z,3.50
2018-11-26T09:39:16.795Z,3.40
2018-11-26T09:41:46.972Z,3.40
2018-11-26T09:44:20.118Z,3.50
2018-11-26T09:46:50.336Z,3.50
2018-11-26T09:49:20.537Z,3.50
2018-11-26T09:51:50.342Z,3.50
2018-11-26T09:54:25.795Z,3.50
2018-11-26T09:56:51.553Z,3.50
2018-11-26T09:59:20.987Z,3.50
2018-11-26T10:01:51.376Z,3.60
2018-11-26T10:04:23.326Z,3.60
2018-11-26T10:06:53.391Z,3.60
2018-11-26T10:09:23.251Z,3.60
2018-11-26T10:11:54.168Z,3.60
2018-11-26T10:14:23.629Z,3.60
2018-11-26T10:16:54.012Z,3.60
2018-11-26T10:19:24.715Z,3.60
2018-11-26T10:21:55.675Z,3.60
2018-11-26T10:24:25.152Z,3.60
2018-11-26T10:26:55.291Z,3.60
2018-11-26T10:29:25.909Z,3.60
2018-11-26T10:31:57.327Z,3.70
2018-11-26T10:34:27.945Z,3.70
2018-11-26T10:36:57.961Z,3.70
2018-11-26T10:39:28.292Z,3.70
2018-11-26T10:41:58.666Z,3.70
2018-11-26T10:44:29.377Z,3.70
2018-11-26T10:46:59.380Z,3.70
2018-11-26T10:49:29.138Z,3.70
2018-11-26T10:51:59.061Z,3.70
2018-11-26T10:54:29.348Z,3.70
2018-11-26T10:57:00.598Z,3.80
2018-11-26T10:59:30.668Z,3.70
2018-11-26T11:02:02.538Z,3.80
2018-11-26T11:04:32.601Z,3.80
2018-11-26T11:07:02.305Z,3.90
2018-11-26T11:09:32.773Z,3.80
2018-11-26T11:12:02.868Z,3.90
2018-11-26T11:14:32.522Z,3.80
2018-11-26T11:17:02.016Z,3.80
2018-11-26T11:19:31.896Z,3.90
2018-11-26T11:22:01.999Z,3.90
2018-11-26T11:24:32.748Z,3.90
2018-11-26T11:27:02.598Z,3.90
2018-11-26T11:29:32.420Z,3.90
2018-11-26T11:32:02.746Z,3.90
2018-11-26T11:34:32.190Z,3.90
2018-11-26T11:37:02.350Z,3.80
2018-11-26T11:39:32.246Z,3.90
2018-11-26T11:42:02.264Z,3.90
2018-11-26T11:44:32.830Z,3.90
2018-11-26T11:47:03.734Z,3.90
2018-11-26T11:49:34.396Z,3.80
2018-11-26T11:52:04.817Z,3.80
2018-11-26T11:54:34.672Z,3.80
2018-11-26T11:57:06.158Z,3.80
2018-11-26T11:59:35.908Z,3.70
2018-11-26T12:02:07.074Z,3.70
2018-11-26T12:04:36.264Z,3.70
2018-11-26T12:07:06.451Z,3.70
2018-11-26T12:09:36.361Z,3.70
2018-11-26T12:12:12.621Z,3.70
2018-11-26T12:14:42.239Z,3.60
2018-11-26T12:17:12.485Z,3.60
2018-11-26T12:19:42.495Z,3.60
2018-11-26T12:22:13.596Z,3.50
2018-11-26T12:24:43.268Z,3.50
2018-11-26T12:27:14.706Z,3.40
2018-11-26T12:29:44.729Z,3.40
2018-11-26T12:32:14.266Z,3.40
2018-11-26T12:34:44.021Z,3.40
2018-11-26T12:37:14.266Z,3.40
2018-11-26T12:39:44.450Z,3.40
2018-11-26T12:42:14.564Z,3.40
2018-11-26T12:44:50.238Z,3.40
2018-11-26T12:47:21.272Z,3.40
2018-11-26T12:49:51.718Z,3.40
2018-11-26T12:52:22.047Z,3.40
2018-11-26T12:54:53.242Z,3.30
2018-11-26T12:57:23.519Z,3.30
2018-11-26T12:59:53.846Z,3.30
2018-11-26T13:02:23.919Z,3.30
2018-11-26T13:04:53.963Z,3.40
2018-11-26T13:07:24.082Z,3.40
2018-11-26T13:09:54.597Z,3.40
2018-11-26T13:12:25.041Z,3.40
2018-11-26T13:14:55.425Z,3.40
2018-11-26T13:17:25.885Z,3.40
2018-11-26T13:19:56.955Z,3.40
2018-11-26T13:22:27.814Z,3.50
2018-11-26T13:24:58.893Z,3.40
2018-11-26T13:27:29.116Z,3.50
2018-11-26T13:29:59.269Z,3.40
2018-11-26T13:32:28.954Z,3.40
2018-11-26T13:34:58.635Z,3.50
2018-11-26T13:37:29.425Z,3.50
2018-11-26T13:39:59.578Z,3.40
2018-11-26T13:42:30.143Z,3.50
2018-11-26T13:45:03.774Z,3.50
2018-11-26T13:47:34.083Z,3.50
2018-11-26T13:50:04.154Z,3.40
2018-11-26T13:52:33.736Z,3.40
2018-11-26T13:55:03.946Z,3.50
2018-11-26T13:57:33.797Z,3.50
2018-11-26T14:00:05.649Z,3.40
2018-11-26T14:02:36.401Z,3.40
2018-11-26T14:05:08.917Z,3.40
2018-11-26T14:07:40.234Z,3.50
2018-11-26T14:10:13.787Z,3.50
2018-11-26T14:12:44.271Z,3.50
2018-11-26T14:15:15.088Z,3.50
2018-11-26T14:17:45.712Z,3.50
2018-11-26T14:20:17.379Z,3.50
2018-11-26T14:22:48.669Z,3.50
2018-11-26T14:25:20.033Z,3.40
2018-11-26T14:27:51.001Z,3.40
2018-11-26T14:30:25.425Z,3.50
2018-11-26T14:32:57.691Z,3.40
2018-11-26T14:35:31.870Z,3.50
2018-11-26T14:38:05.987Z,3.50
2018-11-26T14:40:45.148Z,3.50
2018-11-26T14:43:15.559Z,3.40
2018-11-26T14:45:45.412Z,3.40
2018-11-26T14:48:15.745Z,3.40
2018-11-26T14:50:45.983Z,3.40
2018-11-26T14:53:16.929Z,3.50
2018-11-26T14:55:46.634Z,3.40
2018-11-26T14:58:16.120Z,3.40
2018-11-26T15:00:46.686Z,3.40
2018-11-26T15:03:16.619Z,3.40
2018-11-26T15:05:46.110Z,3.40
2018-11-26T15:08:16.027Z,3.40
2018-11-26T15:10:46.875Z,3.50
2018-11-26T15:13:16.885Z,3.40
2018-11-26T15:15:49.016Z,3.40
2018-11-26T15:18:19.588Z,3.40
2018-11-26T15:20:49.234Z,3.40
2018-11-26T15:23:21.792Z,3.50
2018-11-26T15:25:51.672Z,3.40
2018-11-26T15:28:23.713Z,3.40
2018-11-26T15:30:54.206Z,3.40
2018-11-26T15:33:23.574Z,3.40
2018-11-26T15:35:54.139Z,3.40
2018-11-26T15:38:24.295Z,3.40
2018-11-26T15:40:55.600Z,3.40
2018-11-26T15:43:25.988Z,3.40
2018-11-26T15:46:08.217Z,3.40
2018-11-26T15:48:39.949Z,3.40
2018-11-26T15:51:14.262Z,3.50
2018-11-26T15:53:47.423Z,3.50
2018-11-26T15:56:16.899Z,3.50
2018-11-26T15:58:47.791Z,3.50
2018-11-26T16:01:17.855Z,3.40
2018-11-26T16:03:47.907Z,3.40
2018-11-26T16:06:19.209Z,3.40
2018-11-26T16:08:49.610Z,3.40
2018-11-26T16:11:19.159Z,3.40
2018-11-26T16:13:48.825Z,3.40
2018-11-26T16:16:19.165Z,3.40
2018-11-26T16:18:48.839Z,3.40
2018-11-26T16:21:18.768Z,3.30
2018-11-26T16:23:48.440Z,3.40
2018-11-26T16:26:17.909Z,3.40
2018-11-26T16:28:47.771Z,3.40
2018-11-26T16:31:19.504Z,3.40
2018-11-26T16:33:53.403Z,3.40
2018-11-26T16:36:27.086Z,3.40
2018-11-26T16:39:03.200Z,3.40
2018-11-26T16:41:33.106Z,3.40
2018-11-26T16:44:03.211Z,3.40
2018-11-26T16:46:33.130Z,3.40
2018-11-26T16:49:03.046Z,3.30
2018-11-26T16:51:32.700Z,3.40
2018-11-26T16:54:02.486Z,3.40
2018-11-26T16:56:31.968Z,3.40
2018-11-26T16:59:01.386Z,3.40
2018-11-26T17:01:31.149Z,3.40
2018-11-26T17:04:00.812Z,3.40
2018-11-26T17:06:30.443Z,3.40
2018-11-26T17:08:59.921Z,3.40
2018-11-26T17:11:29.700Z,3.40
2018-11-26T17:13:59.526Z,3.40
2018-11-26T17:16:29.221Z,3.40
2018-11-26T17:18:58.797Z,3.40
2018-11-26T17:21:28.646Z,3.40
2018-11-26T17:23:59.190Z,3.40
2018-11-26T17:26:28.763Z,3.40
2018-11-26T17:28:58.059Z,3.40
2018-11-26T17:31:28.546Z,3.50
2018-11-26T17:33:58.707Z,3.40
2018-11-26T17:36:28.815Z,3.50
2018-11-26T17:38:59.047Z,3.50
2018-11-26T17:41:29.785Z,3.50
2018-11-26T17:44:00.352Z,3.50
2018-11-26T17:46:30.288Z,3.60
2018-11-26T17:49:01.641Z,3.60
2018-11-26T17:51:31.359Z,3.60
2018-11-26T17:54:02.053Z,3.60
2018-11-26T17:56:32.328Z,3.60
2018-11-26T17:59:02.409Z,3.50
2018-11-26T18:01:37.677Z,3.60
2018-11-26T18:04:08.911Z,3.60
2018-11-26T18:06:39.397Z,3.60
2018-11-26T18:09:10.724Z,3.60
2018-11-26T18:11:41.379Z,3.60
2018-11-26T18:14:11.124Z,3.50
2018-11-26T18:16:41.683Z,3.60
2018-11-26T18:19:12.869Z,3.60
2018-11-26T18:21:43.244Z,3.60
2018-11-26T18:24:14.115Z,3.60
2018-11-26T18:26:43.751Z,3.60
2018-11-26T18:29:13.958Z,3.60
2018-11-26T18:31:44.024Z,3.60
2018-11-26T18:34:14.648Z,3.60
2018-11-26T18:36:44.895Z,3.60
2018-11-26T18:39:21.730Z,3.60
2018-11-26T18:41:53.360Z,3.60
2018-11-26T18:44:23.416Z,3.60
2018-11-26T18:46:53.366Z,3.60
2018-11-26T18:49:23.668Z,3.60
2018-11-26T18:51:54.258Z,3.60
2018-11-26T18:54:23.854Z,3.60
2018-11-26T18:56:53.964Z,3.60
2018-11-26T18:59:23.485Z,3.60
2018-11-26T19:01:53.190Z,3.60
2018-11-26T19:04:23.292Z,3.50
2018-11-26T19:06:53.328Z,3.50
2018-11-26T19:09:24.663Z,3.50
2018-11-26T19:11:54.964Z,3.50
2018-11-26T19:14:25.864Z,3.50
2018-11-26T19:16:55.356Z,3.50
2018-11-26T19:19:26.741Z,3.50
2018-11-26T19:21:58.726Z,3.50
2018-11-26T19:24:29.698Z,3.50
2018-11-26T19:27:01.040Z,3.50
2018-11-26T19:29:32.709Z,3.50
2018-11-26T19:32:04.158Z,3.50
2018-11-26T19:34:35.688Z,3.50
2018-11-26T19:37:07.072Z,3.50
2018-11-26T19:39:36.445Z,3.50
2018-11-26T19:42:06.744Z,3.50
2018-11-26T19:44:37.396Z,3.50
2018-11-26T19:47:09.884Z,3.50
2018-11-26T19:49:40.580Z,3.50
2018-11-26T19:52:11.964Z,3.50
2018-11-26T19:54:42.803Z,3.50
2018-11-26T19:57:13.912Z,3.50
2018-11-26T19:59:44.208Z,3.50
2018-11-26T20:02:14.004Z,3.50
2018-11-26T20:04:51.797Z,3.50
2018-11-26T20:07:28.565Z,3.50
2018-11-26T20:09:59.749Z,3.50
2018-11-26T20:12:31.481Z,3.50
2018-11-26T20:15:02.574Z,3.50
2018-11-26T20:17:32.506Z,3.50
2018-11-26T20:20:04.347Z,3.50
2018-11-26T20:22:34.343Z,3.60
2018-11-26T20:25:05.075Z,3.50
2018-11-26T20:27:34.495Z,3.50
2018-11-26T20:30:04.117Z,3.50
2018-11-26T20:32:34.276Z,3.50
2018-11-26T20:35:04.482Z,3.50
2018-11-26T20:37:34.591Z,3.40
2018-11-26T20:40:04.922Z,3.40
2018-11-26T20:42:35.289Z,3.40
2018-11-26T20:45:08.255Z,3.40
2018-11-26T20:47:37.825Z,3.40
2018-11-26T20:50:11.456Z,3.40
2018-11-26T20:52:41.011Z,3.40
2018-11-26T20:55:13.442Z,3.30
2018-11-26T20:57:44.154Z,3.30
2018-11-26T21:00:21.071Z,3.30
2018-11-26T21:02:52.498Z,3.30
2018-11-26T21:05:22.250Z,3.30
2018-11-26T21:07:54.218Z,3.20
2018-11-26T21:10:24.519Z,3.10
2018-11-26T21:12:55.698Z,3.10
2018-11-26T21:15:27.797Z,3.10
2018-11-26T21:17:59.075Z,3.10
2018-11-26T21:20:33.246Z,3.00
2018-11-26T21:23:03.198Z,3.00
2018-11-26T21:25:32.917Z,3.00
2018-11-26T21:28:03.052Z,2.90
2018-11-26T21:30:32.558Z,2.90
2018-11-26T21:33:03.731Z,2.90
2018-11-26T21:35:35.329Z,2.90
2018-11-26T21:38:05.824Z,2.90
2018-11-26T21:40:35.889Z,2.80
2018-11-26T21:43:09.021Z,2.80
2018-11-26T21:45:48.613Z,2.70
2018-11-26T21:48:18.580Z,2.70
2018-11-26T21:50:48.155Z,2.80
2018-11-26T21:53:19.112Z,2.70
2018-11-26T21:55:52.127Z,2.80
2018-11-26T21:58:22.925Z,2.80
2018-11-26T22:00:57.157Z,2.80
2018-11-26T22:03:30.523Z,2.70
2018-11-26T22:05:57.192Z,2.70
2018-11-26T22:08:27.073Z,2.70
2018-11-26T22:10:56.479Z,2.70
2018-11-26T22:13:27.039Z,2.60
2018-11-26T22:15:58.133Z,2.60
2018-11-26T22:18:27.976Z,2.60
2018-11-26T22:21:01.029Z,2.60
2018-11-26T22:23:32.195Z,2.50
2018-11-26T22:26:02.445Z,2.50
2018-11-26T22:28:32.123Z,2.50
2018-11-26T22:31:01.913Z,2.40
2018-11-26T22:33:31.887Z,2.40
2018-11-26T22:36:02.125Z,2.40
2018-11-26T22:38:32.135Z,2.40
2018-11-26T22:41:01.825Z,2.40
2018-11-26T22:43:31.891Z,2.40
2018-11-26T22:46:01.771Z,2.30
2018-11-26T22:48:31.424Z,2.40
2018-11-26T22:51:01.899Z,2.30
2018-11-26T22:53:32.703Z,2.30
2018-11-26T22:56:03.068Z,2.30
2018-11-26T22:58:34.313Z,2.30
2018-11-26T23:01:05.639Z,2.30
2018-11-26T23:03:36.297Z,2.20
2018-11-26T23:06:07.062Z,2.20
2018-11-26T23:08:38.144Z,2.20
2018-11-26T23:11:09.339Z,2.20
2018-11-26T23:13:39.772Z,2.20
2018-11-26T23:16:09.896Z,2.10
2018-11-26T23:18:42.464Z,2.10
2018-11-26T23:21:13.570Z,2.10
2018-11-26T23:23:45.018Z,2.10
2018-11-26T23:26:14.706Z,2.00
2018-11-26T23:28:44.238Z,2.00
2018-11-26T23:31:14.874Z,2.00
2018-11-26T23:33:45.633Z,1.90
2018-11-26T23:36:17.054Z,1.80
2018-11-26T23:38:47.138Z,1.90
2018-11-26T23:41:16.780Z,1.80
2018-11-26T23:43:48.322Z,1.90
2018-11-26T23:46:18.786Z,1.80
2018-11-26T23:48:49.004Z,1.80
2018-11-26T23:51:19.584Z,1.80
2018-11-26T23:53:50.941Z,1.80
2018-11-26T23:56:21.591Z,1.80
2018-11-26T23:58:51.983Z,1.80
